Latest Coastal Weather Observations for Broome

IDW60701

Issued at 7:43 am WST Saturday 1 October 2016 (issued every 10 minutes, with the page automatically refreshed every 10 minutes)

About coastal observations | Map of coastal stations | Coastal observations for WA | Marine services | Other Formats
Station Details ID: 003003 Name: BROOME AIRPORT Lat: -17.95 Lon: 122.24 Height: 7.42 m
Data from the previous 72 hours. | See also: Recent months at Broome
Date/Time
WST
Temp
°C
Wind Pressure Rain since
9am
mm
Weather Cloud Vis
km
Sea
Height
m
Swell
Dir  Spd
kts
Gust
kts
hPa Trend Height
m
Period
s
Dir
01/07:30am 23.3 ESE 5 7 1011.3 - 0.0 - Cloudy 10 - - - -
01/07:00am 22.7 SE 4 6 1011.1 - 0.0 - Partly cloudy 10 - - - -
01/06:30am 22.5 E 1 5 1010.6 - 0.0 - Cloudy 10 - - - -
01/06:00am 23.1 SE 4 5 1009.9 - 0.0 - Cloudy 10 - - - -
01/05:30am 23.2 NNW 3 5 1010.2 - 0.0 - Partly cloudy 10 - - - -
01/05:00am 22.9 E 2 3 1009.5 - 0.0 - Partly cloudy 10 - - - -
01/04:30am 23.5 SSE 3 5 1009.3 - 0.0 - Cloudy 10 - - - -
01/04:00am 23.2 SSE 3 4 1008.9 - 0.0 - Partly cloudy 10 - - - -
01/03:30am 23.7 S 5 7 1008.7 - 0.0 - Partly cloudy 10 - - - -
01/03:00am 24.0 S 6 8 1008.5 - 0.0 - Partly cloudy 10 - - - -
01/02:30am 24.1 SSE 7 10 1008.6 - 0.0 - Partly cloudy 10 - - - -
01/02:00am 24.1 SSE 7 10 1008.8 - 0.0 - Partly cloudy 10 - - - -
01/01:30am 24.3 SSE 9 11 1008.9 - 0.0 - Partly cloudy 10 - - - -
01/01:00am 24.7 SSE 8 10 1009.0 - 0.0 - Partly cloudy 10 - - - -
01/12:30am 25.3 S 8 11 1009.3 - 0.0 - Partly cloudy 10 - - - -
01/12:00am 26.1 S 7 10 1009.3 - 0.0 - Partly cloudy 10 - - - -
 
Date/Time
WST
Temp
°C
Wind Pressure Rain since
9am
mm
Weather Cloud Vis
km
Sea
Height
m
Swell
Dir  Spd
kts
Gust
kts
hPa Trend Height
m
Period
s
Dir
30/11:30pm 26.2 SSE 8 11 1009.0 - 0.0 - Partly cloudy 10 - - - -
30/11:00pm 26.7 SSE 11 15 1009.3 - 0.0 - Partly cloudy 10 - - - -
30/10:30pm 27.2 SSE 12 18 1009.3 - 0.0 - - 10 - - - -
30/10:00pm 27.8 SSE 11 17 1009.6 - 0.0 - - 10 - - - -
30/09:30pm 28.1 S 11 15 1009.7 - 0.0 - - 10 - - - -
30/09:00pm 28.2 S 9 14 1009.4 - 0.0 - Mostly clear 10 - - - -
30/08:30pm 27.3 SSW 10 13 1009.2 - 0.0 - Partly cloudy 10 - - - -
30/08:00pm 27.3 SSW 11 16 1008.8 - 0.0 - - 10 - - - -
30/07:30pm 27.5 SW 12 16 1008.1 - 0.0 - Partly cloudy 10 - - - -
30/07:00pm 27.8 SW 15 21 1007.7 - 0.0 - Partly cloudy 10 - - - -
30/06:30pm 28.5 SW 13 19 1007.3 - 0.0 - Partly cloudy 10 - - - -
30/06:00pm 28.3 SW 12 17 1007.0 - 0.0 - Mostly clear 10 - - - -
30/05:30pm 28.8 SW 12 17 1006.7 - 0.0 - - 10 - - - -
30/05:00pm 32.6 W 9 13 1006.1 - 0.0 - - 10 - - - -
30/04:30pm 33.0 WSW 10 13 1005.7 - 0.0 - - 10 - - - -
30/04:00pm 34.2 WSW 11 14 1005.6 - 0.0 - - 10 - - - -
30/03:30pm 35.4 SW 11 15 1005.6 - 0.0 - - 10 - - - -
30/03:00pm 36.2 WSW 10 13 1005.3 - 0.0 - - 10 - - - -
30/02:30pm 36.0 S 7 10 1005.5 - 0.0 - - 10 - - - -
30/02:00pm 36.6 S 8 10 1005.7 - 0.0 - - 10 - - - -
30/01:30pm 35.6 S 8 11 1005.9 - 0.0 - - 10 - - - -
30/01:00pm 35.4 S 8 11 1006.4 - 0.0 - - 10 - - - -
30/12:30pm 35.6 SSE 7 10 1006.9 - 0.0 - - 10 - - - -
30/12:00pm 34.3 SSE 7 11 1007.5 - 0.0 - - 10 - - - -
30/11:30am 33.7 SE 9 12 1008.2 - 0.0 - - 10 - - - -
30/11:00am 32.2 SE 10 14 1008.8 - 0.0 - - 10 - - - -
30/10:30am 31.7 SE 10 13 1009.4 - 0.0 - - 10 - - - -
30/10:00am 31.2 SE 9 13 1010.2 - 0.0 - - 10 - - - -
30/09:30am 29.9 SE 8 11 1010.4 - 0.0 - - 10 - - - -
30/09:00am 29.4 E 9 12 1010.7 - 0.0 - - 10 - - - -
30/08:30am 27.9 ESE 9 13 1010.6 - 0.0 - - 10 - - - -
30/08:00am 27.0 ESE 9 12 1010.5 - 0.0 - - 10 - - - -
30/07:30am 26.5 ESE 6 9 1010.4 - 0.0 - - 10 - - - -
30/07:00am 23.8 E 5 6 1009.9 - 0.0 - - 10 - - - -
30/06:30am 22.9 E 6 8 1009.5 - 0.0 - - 10 - - - -
30/06:00am 21.9 E 6 8 1009.0 - 0.0 - - 10 - - - -
30/05:30am 20.3 ENE 3 4 1009.0 - 0.0 - - 10 - - - -
30/05:00am 20.6 NE 4 5 1008.8 - 0.0 - - 10 - - - -
30/04:30am 22.5 SE 4 5 1008.7 - 0.0 - - 10 - - - -
30/04:00am 24.2 SE 4 5 1008.6 - 0.0 - - 10 - - - -
30/03:30am 22.8 ESE 6 7 1008.4 - 0.0 - - 10 - - - -
30/03:00am 21.6 E 4 5 1008.1 - 0.0 - - 10 - - - -
30/02:30am 20.6 E 4 5 1008.3 - 0.0 - - 10 - - - -
30/02:00am 20.6 E 4 5 1008.4 - 0.0 - - 10 - - - -
30/01:30am 21.2 ENE 2 3 1008.6 - 0.0 - - 10 - - - -
30/01:00am 22.0 ENE 4 5 1008.6 - 0.0 - - 10 - - - -
30/12:30am 23.1 ESE 3 4 1008.9 - 0.0 - - 10 - - - -
30/12:00am 23.3 E 4 4 1008.9 - 0.0 - - 10 - - - -
 
Date/Time
WST
Temp
°C
Wind Pressure Rain since
9am
mm
Weather Cloud Vis
km
Sea
Height
m
Swell
Dir  Spd
kts
Gust
kts
hPa Trend Height
m
Period
s
Dir
29/11:30pm 24.5 ESE 5 6 1009.1 - 0.0 - - 10 - - - -
29/11:00pm 26.7 ESE 6 9 1009.4 - 0.0 - - 10 - - - -
29/10:30pm 28.2 SSE 6 10 1009.6 - 0.0 - - 10 - - - -
29/10:00pm 28.2 SE 5 7 1009.7 - 0.0 - - 10 - - - -
29/09:30pm 28.1 S 5 7 1009.8 - 0.0 - - 10 - - - -
29/09:00pm 28.2 S 7 9 1009.6 - 0.0 - - 10 - - - -
29/08:30pm 28.7 SSW 9 13 1009.5 - 0.0 - - 10 - - - -
29/08:00pm 28.7 SSW 9 12 1009.2 - 0.0 - - 10 - - - -
29/07:30pm 29.3 SSW 9 13 1008.9 - 0.0 - - 10 - - - -
29/07:00pm 29.5 SW 8 11 1008.5 - 0.0 - - 10 - - - -
29/06:30pm 29.2 SW 7 11 1008.3 - 0.0 - - 10 - - - -
29/06:00pm 29.2 SW 7 9 1007.9 - 0.0 - - 10 - - - -
29/05:30pm 30.0 SW 11 13 1007.6 - 0.0 - - 10 - - - -
29/05:00pm 33.9 S 7 9 1007.2 - 0.0 - - 10 - - - -
29/04:30pm 35.5 SSE 6 9 1007.1 - 0.0 - - 10 - - - -
29/04:00pm 35.7 SSE 7 10 1007.0 - 0.0 - - 10 - - - -
29/03:30pm 35.8 SSE 8 11 1007.1 - 0.0 - - 10 - - - -
29/03:00pm 35.4 SSE 7 10 1007.1 - 0.0 - - 10 - - - -
29/02:30pm 35.1 SSE 9 11 1007.5 - 0.0 - - 10 - - - -
29/02:00pm 35.1 S 9 12 1007.8 - 0.0 - - 10 - - - -
29/01:30pm 35.2 SE 11 14 1008.2 - 0.0 - - 10 - - - -
29/01:00pm 34.7 SSE 11 15 1008.7 - 0.0 - - 10 - - - -
29/12:30pm 34.2 SE 11 16 1009.2 - 0.0 - - 10 - - - -
29/12:00pm 34.6 SE 13 18 1009.5 - 0.0 - - 10 - - - -
29/11:30am 33.2 SE 12 16 1010.2 - 0.0 - - 10 - - - -
29/11:00am 33.5 SE 13 18 1010.9 - 0.0 - - 10 - - - -
29/10:30am 32.8 ESE 14 19 1011.4 - 0.0 - - 10 - - - -
29/10:00am 32.3 ESE 17 23 1011.8 - 0.0 - - 10 - - - -
29/09:30am 31.4 ESE 14 21 1012.0 - 0.0 - - 10 - - - -
29/09:00am 28.9 ESE 15 19 1012.1 - 0.0 - - 10 - - - -
29/08:30am 28.5 ESE 14 19 1012.4 - 0.0 - - 10 - - - -
29/08:00am 27.7 ESE 12 16 1012.4 - 0.0 - - 10 - - - -
29/07:30am 26.8 ESE 13 17 1012.3 - 0.0 - - 10 - - - -
29/07:00am 26.8 ESE 11 17 1011.9 - 0.0 - - 10 - - - -
29/06:30am 26.7 SE 10 16 1011.6 - 0.0 - - 10 - - - -
29/06:00am 26.8 SSE 10 17 1011.0 - 0.0 - - 10 - - - -
29/05:30am 26.8 SSE 9 14 1010.6 - 0.0 - - 10 - - - -
29/05:00am 26.4 S 7 11 1010.2 - 0.0 - - 10 - - - -
29/04:30am 26.4 S 7 9 1010.2 - 0.0 - - 10 - - - -
29/04:00am 26.4 S 6 8 1010.0 - 0.0 - - 10 - - - -
29/03:30am 26.1 S 4 5 1009.8 - 0.0 - - 10 - - - -
29/03:00am 26.3 SSW 5 7 1009.8 - 0.0 - Mostly clear 10 - - - -
29/02:30am 25.5 CALM 0 0 1009.7 - 0.0 - - 10 - - - -
29/02:00am 25.2 CALM 0 0 1009.7 - 0.0 - - 10 - - - -
29/01:30am 25.4 CALM 0 0 1010.0 - 0.0 - - 10 - - - -
29/01:00am 25.6 N 3 4 1010.3 - 0.0 - - 10 - - - -
29/12:30am 25.9 ENE 2 5 1010.5 - 0.0 - - 10 - - - -
29/12:00am 25.9 CALM 0 0 1010.6 - 0.0 - - 10 - - - -
 
Date/Time
WST
Temp
°C
Wind Pressure Rain since
9am
mm
Weather Cloud Vis
km
Sea
Height
m
Swell
Dir  Spd
kts
Gust
kts
hPa Trend Height
m
Period
s
Dir
28/11:30pm 26.7 SE 3 3 1010.9 - 0.0 - - 10 - - - -
28/11:00pm 27.1 SE 4 5 1011.1 - 0.0 - - 10 - - - -
28/10:30pm 27.3 SSE 4 6 1011.4 - 0.0 - Partly cloudy 10 - - - -
28/10:00pm 27.5 SSE 5 6 1011.6 - 0.0 - - 10 - - - -
28/09:30pm 27.5 S 5 6 1011.5 - 0.0 - Partly cloudy 10 - - - -
28/09:00pm 27.6 S 5 7 1011.4 - 0.0 - - 10 - - - -
28/08:30pm 27.6 S 6 8 1011.2 - 0.0 - - 10 - - - -
28/08:00pm 27.3 SSW 7 9 1010.9 - 0.0 - - 10 - - - -
28/07:30pm 27.0 SSW 7 10 1010.6 - 0.0 - - 10 - - - -
28/07:00pm 26.5 SW 9 13 1010.4 - 0.0 - - 10 - - - -
28/06:30pm 26.7 SW 9 12 1010.1 - 0.0 - - 10 - - - -
28/06:00pm 26.8 SW 9 12 1009.8 - 0.0 - - 10 - - - -
28/05:30pm 27.3 WSW 12 14 1009.8 - 0.0 - - 10 - - - -
28/05:00pm 28.1 SW 11 15 1009.5 - 0.0 - - 10 - - - -
28/04:30pm 28.6 SW 11 15 1009.2 - 0.0 - - 10 - - - -
28/04:00pm 28.9 SW 13 18 1009.1 - 0.0 - - 10 - - - -
28/03:30pm 30.3 SW 14 18 1009.3 - 0.0 - - 10 - - - -
28/03:00pm 29.3 SW 13 17 1009.2 - 0.0 - - 10 - - - -
28/02:30pm 29.9 SW 11 15 1009.6 - 0.0 - - 10 - - - -
28/02:00pm 29.3 SW 10 13 1009.7 - 0.0 - Mostly clear 10 - - - -
28/01:30pm 29.1 W 10 13 1010.1 - 0.0 - Mostly clear 10 - - - -
28/01:00pm 30.2 SW 8 11 1010.4 - 0.0 - Mostly clear 10 - - - -
28/12:30pm 30.9 SSW 7 11 1010.9 - 0.0 - - 10 - - - -
28/12:00pm 30.2 SW 8 12 1011.2 - 0.0 - - 10 - - - -
28/11:30am 29.5 SSW 9 13 1011.9 - 0.0 - - 10 - - - -
28/11:00am 29.4 SSW 10 14 1012.3 - 0.0 - Mostly clear 10 - - - -
28/10:30am 29.7 SSW 8 11 1012.4 - 0.0 - Mostly clear 10 - - - -
28/10:00am 29.1 S 8 12 1012.8 - 0.0 - - 10 - - - -
28/09:30am 27.5 SSW 8 10 1013.0 - 0.0 - - 10 - - - -
28/09:00am 27.4 S 7 10 1013.1 - 0.0 - - 10 - - - -
28/08:30am 26.6 S 7 11 1013.0 - 0.0 - - 10 - - - -
28/08:00am 26.3 S 9 13 1012.8 - 0.0 - - 10 - - - -

Other Formats:

Comma delimited format used in spreadsheet applications
http://www.bom.gov.au/fwo/IDW60701/IDW60701.94203.axf

JavaScript Object Notation format (JSON) in row-major order
http://www.bom.gov.au/fwo/IDW60701/IDW60701.94203.json